createdAt,value
2023-01-12T00:01:27.937Z,6.07
2023-01-12T00:04:19.659Z,6.09
2023-01-12T00:07:20.533Z,6.03
2023-01-12T00:10:19.273Z,6.07
2023-01-12T00:12:56.150Z,6.20
2023-01-12T00:15:54.100Z,6.27
2023-01-12T00:18:28.251Z,6.12
2023-01-12T00:21:20.657Z,6.08
2023-01-12T00:24:05.664Z,5.96
2023-01-12T00:27:24.502Z,6.05
2023-01-12T00:30:11.953Z,6.08
2023-01-12T00:33:42.418Z,6.02
2023-01-12T00:36:34.594Z,5.92
2023-01-12T00:39:33.599Z,5.88
2023-01-12T00:42:20.499Z,5.99
2023-01-12T00:45:30.487Z,6.23
2023-01-12T00:48:38.162Z,6.47
2023-01-12T00:51:26.195Z,6.68
2023-01-12T00:54:27.396Z,6.89
2023-01-12T00:56:58.085Z,6.90
2023-01-12T00:59:36.994Z,7.03
2023-01-12T01:02:50.998Z,7.08
2023-01-12T01:05:31.116Z,6.89
2023-01-12T01:08:04.975Z,7.03
2023-01-12T01:10:33.489Z,7.09
2023-01-12T01:13:23.257Z,7.07
2023-01-12T01:15:59.405Z,7.05
2023-01-12T01:18:31.934Z,7.06
2023-01-12T01:21:17.060Z,7.08
2023-01-12T01:23:53.221Z,7.14
2023-01-12T01:26:32.145Z,7.15
2023-01-12T01:29:17.217Z,7.13
2023-01-12T01:32:15.086Z,7.11
2023-01-12T01:34:49.938Z,7.13
2023-01-12T01:37:42.762Z,7.03
2023-01-12T01:40:16.951Z,7.06
2023-01-12T01:43:04.798Z,7.10
2023-01-12T01:46:06.111Z,6.96
2023-01-12T01:49:04.332Z,6.80
2023-01-12T01:51:48.935Z,6.79
2023-01-12T01:54:37.947Z,6.74
2023-01-12T01:57:25.079Z,6.60
2023-01-12T02:00:07.175Z,6.48
2023-01-12T02:02:39.107Z,6.43
2023-01-12T02:05:13.049Z,6.41
2023-01-12T02:07:54.430Z,6.43
2023-01-12T02:10:31.102Z,6.39
2023-01-12T02:13:23.458Z,6.53
2023-01-12T02:16:22.313Z,6.42
2023-01-12T02:19:32.483Z,6.49
2023-01-12T02:23:06.704Z,6.51
2023-01-12T02:26:31.606Z,6.66
2023-01-12T02:29:27.873Z,6.81
2023-01-12T02:32:49.806Z,6.81
2023-01-12T02:36:09.152Z,6.69
2023-01-12T02:38:50.058Z,6.70
2023-01-12T02:41:43.477Z,6.70
2023-01-12T02:44:44.625Z,6.73
2023-01-12T02:48:15.379Z,6.73
2023-01-12T02:51:33.807Z,6.45
2023-01-12T02:54:13.454Z,6.45
2023-01-12T02:57:02.333Z,6.51
2023-01-12T02:59:53.017Z,6.43
2023-01-12T03:02:24.543Z,6.53
2023-01-12T03:04:55.817Z,6.71
2023-01-12T03:07:49.638Z,6.76
2023-01-12T03:10:55.595Z,6.86
2023-01-12T03:13:30.496Z,6.95
2023-01-12T03:16:36.825Z,6.84
2023-01-12T03:19:29.783Z,6.79
2023-01-12T03:22:22.243Z,6.92
2023-01-12T03:25:10.303Z,6.89
2023-01-12T03:27:57.142Z,6.81
2023-01-12T03:30:42.785Z,6.88
2023-01-12T03:33:22.510Z,7.06
2023-01-12T03:36:33.797Z,7.01
2023-01-12T03:39:28.939Z,6.97
2023-01-12T03:42:49.201Z,6.98
2023-01-12T03:46:24.465Z,7.10
2023-01-12T03:49:52.926Z,6.86
2023-01-12T03:52:35.443Z,6.80
2023-01-12T03:55:11.246Z,6.94
2023-01-12T03:58:23.511Z,7.00
2023-01-12T04:01:43.725Z,7.06
2023-01-12T04:04:37.643Z,7.09
2023-01-12T04:07:35.322Z,7.02
2023-01-12T04:10:41.900Z,7.09
2023-01-12T04:13:51.819Z,7.26
2023-01-12T04:17:01.185Z,7.21
2023-01-12T04:19:49.226Z,7.23
2023-01-12T04:22:55.385Z,7.27
2023-01-12T04:25:43.015Z,7.19
2023-01-12T04:28:28.701Z,7.16
2023-01-12T04:31:36.225Z,7.10
2023-01-12T04:35:24.441Z,7.15
2023-01-12T04:38:19.753Z,7.07
2023-01-12T04:41:39.564Z,7.17
2023-01-12T04:44:18.982Z,7.29
2023-01-12T04:47:11.833Z,7.36
2023-01-12T04:49:51.364Z,7.49
2023-01-12T04:53:22.019Z,7.51
2023-01-12T04:56:31.519Z,7.57
2023-01-12T04:59:07.414Z,7.54
2023-01-12T05:01:47.668Z,7.59
2023-01-12T05:04:52.997Z,7.66
2023-01-12T05:08:03.660Z,7.73
2023-01-12T05:11:16.888Z,7.68
2023-01-12T05:14:27.555Z,7.71
2023-01-12T05:17:05.280Z,7.83
2023-01-12T05:19:51.139Z,7.82
2023-01-12T05:22:52.719Z,7.79
2023-01-12T05:25:46.072Z,7.78
2023-01-12T05:28:47.554Z,7.71
2023-01-12T05:31:40.202Z,7.66
2023-01-12T05:34:40.517Z,7.56
2023-01-12T05:37:39.791Z,7.38
2023-01-12T05:40:54.249Z,7.38
2023-01-12T05:43:55.596Z,7.56
2023-01-12T05:46:50.249Z,7.65
2023-01-12T05:49:26.135Z,7.69
2023-01-12T05:52:11.400Z,7.72
2023-01-12T05:54:47.781Z,7.74
2023-01-12T05:57:31.401Z,7.86
2023-01-12T06:00:11.727Z,7.95
2023-01-12T06:03:05.603Z,8.10
2023-01-12T06:05:42.388Z,8.14
2023-01-12T06:08:21.039Z,8.10
2023-01-12T06:11:23.340Z,8.19
2023-01-12T06:14:30.601Z,8.22
2023-01-12T06:17:39.531Z,8.21
2023-01-12T06:20:22.351Z,8.26
2023-01-12T06:23:35.428Z,8.12
2023-01-12T06:26:12.682Z,8.07
2023-01-12T06:28:52.191Z,8.15
2023-01-12T06:32:00.573Z,8.21
2023-01-12T06:35:14.063Z,8.17
2023-01-12T06:38:03.271Z,8.21
2023-01-12T06:41:18.103Z,8.17
2023-01-12T06:44:18.056Z,8.05
2023-01-12T06:46:56.895Z,8.03
2023-01-12T06:49:55.719Z,8.22
2023-01-12T06:53:30.672Z,8.24
2023-01-12T06:56:19.610Z,8.13
2023-01-12T06:59:34.826Z,8.15
2023-01-12T07:02:23.481Z,8.18
2023-01-12T07:04:57.238Z,8.12
2023-01-12T07:07:40.534Z,8.14
2023-01-12T07:10:32.581Z,8.27
2023-01-12T07:13:23.202Z,8.32
2023-01-12T07:16:06.989Z,8.44
2023-01-12T07:18:46.374Z,8.55
2023-01-12T07:21:20.304Z,8.51
2023-01-12T07:24:04.428Z,8.46
2023-01-12T07:27:05.064Z,8.45
2023-01-12T07:29:50.128Z,8.44
2023-01-12T07:32:37.145Z,8.51
2023-01-12T07:35:13.916Z,8.50
2023-01-12T07:37:54.177Z,8.38
2023-01-12T07:40:34.859Z,8.51
2023-01-12T07:43:33.654Z,8.59
2023-01-12T07:46:39.790Z,8.62
2023-01-12T07:50:21.079Z,8.82
2023-01-12T07:53:22.232Z,8.99
2023-01-12T07:56:19.292Z,9.13
2023-01-12T07:58:48.983Z,9.27
2023-01-12T08:01:43.680Z,9.37
2023-01-12T08:04:22.759Z,9.51
2023-01-12T08:06:58.480Z,9.59
2023-01-12T08:10:09.634Z,9.59
2023-01-12T08:13:27.778Z,8.62
2023-01-12T08:16:56.654Z,7.44
2023-01-12T08:20:44.821Z,6.96
2023-01-12T08:23:51.141Z,7.75
2023-01-12T08:27:01.761Z,8.29
2023-01-12T08:30:08.329Z,8.69
2023-01-12T08:33:01.300Z,9.06
2023-01-12T08:35:36.323Z,9.24
2023-01-12T08:39:05.625Z,9.34
2023-01-12T08:42:08.824Z,9.56
2023-01-12T08:45:03.133Z,9.77
2023-01-12T08:47:48.315Z,9.83
2023-01-12T08:51:48.671Z,9.98
2023-01-12T08:55:06.057Z,10.17
2023-01-12T08:58:12.098Z,10.19
2023-01-12T09:01:00.523Z,10.28
2023-01-12T09:04:42.659Z,10.37
2023-01-12T09:07:52.655Z,10.16
2023-01-12T09:11:18.540Z,9.01
2023-01-12T09:14:27.346Z,8.80
2023-01-12T09:17:42.052Z,9.44
2023-01-12T09:20:40.289Z,9.83
2023-01-12T09:23:17.675Z,10.02
2023-01-12T09:25:49.435Z,10.17
2023-01-12T09:28:27.718Z,10.35
2023-01-12T09:31:26.669Z,10.50
2023-01-12T09:34:10.580Z,10.52
2023-01-12T09:37:45.215Z,10.53
2023-01-12T09:40:42.259Z,10.72
2023-01-12T09:43:41.049Z,10.88
2023-01-12T09:46:59.404Z,10.99
2023-01-12T09:49:53.581Z,10.26
2023-01-12T09:53:01.485Z,9.32
2023-01-12T09:56:25.023Z,9.36
2023-01-12T10:00:04.096Z,10.16
2023-01-12T10:03:46.075Z,10.77
2023-01-12T10:06:19.804Z,11.12
2023-01-12T10:09:30.270Z,11.18
2023-01-12T10:13:21.104Z,11.23
2023-01-12T10:16:57.998Z,10.90
2023-01-12T10:20:32.605Z,9.62
2023-01-12T10:23:36.662Z,9.01
2023-01-12T10:27:36.430Z,9.80
2023-01-12T10:30:37.928Z,10.57
2023-01-12T10:33:44.967Z,10.93
2023-01-12T10:36:30.555Z,11.06
2023-01-12T10:40:18.613Z,11.28
2023-01-12T10:43:42.173Z,11.33
2023-01-12T10:46:55.670Z,11.40
2023-01-12T10:49:46.354Z,11.50
2023-01-12T10:52:58.279Z,11.22
2023-01-12T10:55:45.195Z,10.10
2023-01-12T10:58:55.128Z,10.04
2023-01-12T11:02:49.164Z,10.75
2023-01-12T11:06:46.940Z,11.12
2023-01-12T11:10:53.278Z,11.23
2023-01-12T11:14:25.762Z,11.38
2023-01-12T11:18:08.275Z,11.47
2023-01-12T11:22:17.620Z,11.45
2023-01-12T11:26:07.917Z,11.42
2023-01-12T11:29:57.412Z,11.45
2023-01-12T11:34:03.175Z,11.55
2023-01-12T11:37:17.101Z,11.65
2023-01-12T11:41:00.928Z,11.73
2023-01-12T11:44:06.257Z,11.75
2023-01-12T11:47:40.848Z,11.86
2023-01-12T11:51:05.928Z,11.09
2023-01-12T11:53:56.218Z,10.01
2023-01-12T11:57:04.428Z,9.95
2023-01-12T12:01:38.145Z,10.82
2023-01-12T12:06:03.028Z,11.60
2023-01-12T12:10:17.044Z,12.15
2023-01-12T12:13:47.739Z,12.08
2023-01-12T12:17:06.460Z,11.04
2023-01-12T12:20:17.263Z,10.20
2023-01-12T12:24:09.938Z,10.39
2023-01-12T12:27:57.067Z,11.33
2023-01-12T12:31:59.262Z,11.85
2023-01-12T12:35:11.227Z,12.22
2023-01-12T12:39:04.889Z,12.24
2023-01-12T12:43:43.531Z,12.42
2023-01-12T12:46:50.934Z,11.76
2023-01-12T12:50:11.833Z,10.76
2023-01-12T12:54:02.297Z,10.68
2023-01-12T12:57:41.492Z,11.40
2023-01-12T13:01:41.360Z,11.88
2023-01-12T13:05:24.691Z,12.10
2023-01-12T13:08:35.019Z,12.23
2023-01-12T13:12:06.799Z,11.12
2023-01-12T13:16:21.178Z,10.02
2023-01-12T13:20:20.377Z,10.57
2023-01-12T13:24:33.768Z,11.28
2023-01-12T13:28:00.021Z,11.67
2023-01-12T13:31:19.478Z,11.84
2023-01-12T13:35:11.770Z,11.99
2023-01-12T13:39:16.325Z,12.02
2023-01-12T13:42:37.731Z,12.04
2023-01-12T13:45:35.838Z,12.12
2023-01-12T13:48:42.814Z,12.20
2023-01-12T13:52:13.867Z,11.83
2023-01-12T13:54:54.750Z,10.46
2023-01-12T13:57:34.481Z,9.63
2023-01-12T14:00:22.097Z,9.06
2023-01-12T14:03:48.656Z,9.48
2023-01-12T14:07:09.564Z,10.26
2023-01-12T14:10:57.194Z,10.73
2023-01-12T14:14:23.019Z,11.07
2023-01-12T14:17:24.065Z,11.21
2023-01-12T14:19:57.562Z,11.31
2023-01-12T14:23:13.371Z,11.36
2023-01-12T14:26:32.106Z,11.36
2023-01-12T14:29:42.673Z,11.36
2023-01-12T14:32:23.924Z,11.29
2023-01-12T14:35:38.727Z,11.23
2023-01-12T14:38:32.381Z,11.13
2023-01-12T14:41:41.939Z,11.14
2023-01-12T14:45:35.902Z,11.09
2023-01-12T14:48:42.503Z,11.21
2023-01-12T14:51:37.765Z,11.25
2023-01-12T14:55:11.197Z,11.22
2023-01-12T14:58:03.026Z,11.23
2023-01-12T15:01:11.539Z,11.30
2023-01-12T15:04:01.433Z,11.30
2023-01-12T15:07:18.209Z,11.25
2023-01-12T15:10:37.917Z,11.26
2023-01-12T15:14:30.979Z,11.17
2023-01-12T15:17:35.133Z,11.11
2023-01-12T15:20:54.863Z,11.05
2023-01-12T15:23:56.748Z,10.97
2023-01-12T15:27:13.282Z,10.90
2023-01-12T15:30:14.218Z,10.81
2023-01-12T15:32:53.427Z,10.83
2023-01-12T15:35:35.447Z,10.87
2023-01-12T15:38:40.805Z,10.85
2023-01-12T15:41:42.805Z,10.78
2023-01-12T15:44:23.576Z,10.76
2023-01-12T15:46:57.602Z,10.71
2023-01-12T15:49:32.949Z,10.64
2023-01-12T15:52:22.120Z,10.44
2023-01-12T15:54:57.684Z,10.41
2023-01-12T15:57:32.081Z,10.44
2023-01-12T16:00:39.371Z,10.41
2023-01-12T16:03:49.011Z,10.43
2023-01-12T16:06:44.857Z,10.28
2023-01-12T16:09:30.667Z,10.19
2023-01-12T16:11:59.364Z,10.16
2023-01-12T16:15:30.091Z,10.14
2023-01-12T16:18:06.812Z,10.18
2023-01-12T16:20:40.309Z,10.14
2023-01-12T16:23:42.088Z,10.08
2023-01-12T16:26:28.786Z,9.84
2023-01-12T16:29:23.683Z,9.88
2023-01-12T16:32:06.001Z,9.97
2023-01-12T16:34:48.107Z,9.97
2023-01-12T16:37:53.834Z,9.90
2023-01-12T16:40:45.209Z,9.92
2023-01-12T16:43:24.698Z,10.00
2023-01-12T16:46:17.896Z,10.05
2023-01-12T16:49:05.500Z,9.96
2023-01-12T16:52:04.059Z,9.79
2023-01-12T16:55:08.069Z,9.67
2023-01-12T16:58:21.565Z,9.71
2023-01-12T17:01:32.658Z,9.66
2023-01-12T17:04:35.153Z,9.68
2023-01-12T17:08:02.235Z,9.66
2023-01-12T17:11:04.959Z,9.53
2023-01-12T17:14:20.848Z,9.49
2023-01-12T17:17:10.927Z,9.41
2023-01-12T17:19:57.591Z,9.47
2023-01-12T17:22:56.064Z,9.56
2023-01-12T17:25:24.850Z,9.49
2023-01-12T17:28:34.726Z,9.48
2023-01-12T17:31:18.722Z,9.50
2023-01-12T17:33:51.934Z,9.42
2023-01-12T17:36:20.774Z,9.42
2023-01-12T17:39:01.497Z,9.35
2023-01-12T17:42:04.101Z,9.41
2023-01-12T17:44:42.378Z,9.32
2023-01-12T17:47:16.185Z,9.36
2023-01-12T17:49:45.399Z,9.32
2023-01-12T17:52:27.497Z,9.30
2023-01-12T17:54:55.899Z,9.26
2023-01-12T17:57:31.712Z,9.30
2023-01-12T18:00:29.612Z,9.34
2023-01-12T18:03:14.368Z,9.24
2023-01-12T18:06:11.857Z,9.23
2023-01-12T18:08:56.571Z,9.18
2023-01-12T18:11:50.451Z,9.28
2023-01-12T18:14:27.787Z,9.28
2023-01-12T18:17:10.036Z,9.27
2023-01-12T18:19:46.167Z,9.19
2023-01-12T18:22:28.843Z,9.14
2023-01-12T18:25:06.212Z,9.01
2023-01-12T18:27:45.555Z,8.91
2023-01-12T18:30:37.052Z,8.91
2023-01-12T18:33:15.689Z,8.90
2023-01-12T18:36:10.255Z,8.91
2023-01-12T18:38:43.562Z,9.06
2023-01-12T18:41:43.174Z,9.11
2023-01-12T18:44:39.085Z,9.08
2023-01-12T18:47:41.018Z,9.12
2023-01-12T18:51:44.758Z,9.11
2023-01-12T18:54:27.776Z,9.00
2023-01-12T18:57:06.338Z,8.95
2023-01-12T19:00:15.438Z,8.99
2023-01-12T19:02:53.606Z,9.11
2023-01-12T19:05:55.554Z,9.13
2023-01-12T19:08:51.488Z,9.09
2023-01-12T19:11:38.643Z,9.09
2023-01-12T19:14:53.922Z,9.08
2023-01-12T19:17:42.005Z,9.13
2023-01-12T19:20:21.388Z,8.99
2023-01-12T19:23:11.276Z,9.00
2023-01-12T19:26:19.689Z,8.98
2023-01-12T19:29:05.575Z,9.05
2023-01-12T19:31:39.927Z,8.99
2023-01-12T19:34:20.148Z,8.96
2023-01-12T19:37:05.627Z,8.92
2023-01-12T19:40:00.179Z,8.95
2023-01-12T19:43:12.797Z,8.96
2023-01-12T19:46:13.908Z,8.89
2023-01-12T19:49:05.563Z,8.65
2023-01-12T19:51:57.528Z,8.70
2023-01-12T19:54:52.633Z,8.75
2023-01-12T19:57:41.390Z,8.56
2023-01-12T20:00:26.981Z,8.46
2023-01-12T20:03:30.991Z,8.23
2023-01-12T20:06:48.719Z,8.12
2023-01-12T20:09:49.147Z,8.17
2023-01-12T20:12:24.180Z,8.02
2023-01-12T20:15:11.759Z,8.05
2023-01-12T20:18:00.260Z,7.96
2023-01-12T20:21:10.931Z,8.06
2023-01-12T20:23:58.863Z,7.97
2023-01-12T20:27:03.189Z,8.04
2023-01-12T20:29:47.027Z,8.06
2023-01-12T20:32:32.362Z,8.05
2023-01-12T20:35:13.029Z,8.02
2023-01-12T20:38:15.704Z,7.98
2023-01-12T20:41:44.047Z,7.92
2023-01-12T20:44:21.211Z,7.98
2023-01-12T20:47:07.087Z,7.82
2023-01-12T20:50:08.143Z,7.64
2023-01-12T20:53:01.126Z,7.60
2023-01-12T20:55:52.823Z,7.54
2023-01-12T20:59:12.242Z,7.47
2023-01-12T21:02:28.628Z,7.32
2023-01-12T21:05:12.563Z,7.30
2023-01-12T21:07:59.995Z,7.38
2023-01-12T21:10:40.604Z,7.46
2023-01-12T21:13:16.790Z,7.49
2023-01-12T21:15:45.321Z,7.61
2023-01-12T21:18:19.380Z,7.70
2023-01-12T21:21:02.504Z,7.72
2023-01-12T21:23:42.961Z,7.66
2023-01-12T21:26:14.117Z,7.70
2023-01-12T21:29:03.786Z,7.76
2023-01-12T21:32:00.961Z,7.74
2023-01-12T21:34:31.652Z,7.76
2023-01-12T21:37:09.397Z,7.70
2023-01-12T21:39:58.118Z,7.64
2023-01-12T21:42:50.766Z,7.64
2023-01-12T21:45:26.415Z,7.51
2023-01-12T21:48:21.859Z,7.53
2023-01-12T21:51:06.689Z,7.55
2023-01-12T21:54:18.032Z,7.42
2023-01-12T21:57:05.865Z,7.34
2023-01-12T21:59:37.049Z,7.18
2023-01-12T22:02:23.683Z,7.27
2023-01-12T22:05:06.351Z,7.24
2023-01-12T22:07:50.549Z,7.17
2023-01-12T22:10:30.648Z,7.16
2023-01-12T22:13:31.630Z,7.01
2023-01-12T22:16:11.855Z,6.98
2023-01-12T22:18:49.076Z,6.97
2023-01-12T22:21:38.216Z,6.89
2023-01-12T22:24:26.151Z,7.00
2023-01-12T22:27:02.619Z,6.92
2023-01-12T22:29:38.469Z,7.04
2023-01-12T22:32:17.510Z,7.00
2023-01-12T22:34:59.213Z,6.93
2023-01-12T22:37:41.446Z,6.74
2023-01-12T22:40:34.751Z,6.89
2023-01-12T22:43:41.120Z,6.93
2023-01-12T22:46:16.110Z,6.87
2023-01-12T22:48:54.083Z,6.87
2023-01-12T22:51:33.796Z,6.85
2023-01-12T22:54:16.920Z,6.83
2023-01-12T22:57:06.628Z,6.69
2023-01-12T22:59:41.942Z,6.74
2023-01-12T23:03:20.420Z,6.82
2023-01-12T23:06:11.977Z,6.90
2023-01-12T23:09:03.830Z,6.93
2023-01-12T23:11:35.401Z,6.92
2023-01-12T23:14:20.118Z,6.94
2023-01-12T23:17:12.500Z,6.84
2023-01-12T23:19:46.774Z,6.77
2023-01-12T23:22:53.548Z,6.76
2023-01-12T23:26:07.085Z,6.82
2023-01-12T23:28:48.165Z,6.74
2023-01-12T23:31:24.892Z,6.78
2023-01-12T23:34:19.462Z,6.76
2023-01-12T23:36:57.769Z,6.56
2023-01-12T23:40:07.117Z,6.67
2023-01-12T23:42:50.551Z,6.59
2023-01-12T23:45:24.718Z,6.39
2023-01-12T23:48:10.007Z,6.47
2023-01-12T23:50:44.313Z,6.50
2023-01-12T23:53:29.006Z,6.47
2023-01-12T23:56:11.272Z,6.53
2023-01-12T23:58:56.761Z,6.66
